sensor_id;sensor_type;location;lat;lon;timestamp;P1;durP1;ratioP1;P2;durP2;ratioP2
85295;SDS011;76389;43.958;2.882;2024-02-16T00:00:57;4.43;;;0.70;;
85295;SDS011;76389;43.958;2.882;2024-02-16T00:03:25;3.42;;;0.73;;
85295;SDS011;76389;43.958;2.882;2024-02-16T00:05:52;3.08;;;0.88;;
85295;SDS011;76389;43.958;2.882;2024-02-16T00:08:18;2.22;;;0.35;;
85295;SDS011;76389;43.958;2.882;2024-02-16T00:10:45;6.53;;;1.13;;
85295;SDS011;76389;43.958;2.882;2024-02-16T00:13:12;4.00;;;1.20;;
85295;SDS011;76389;43.958;2.882;2024-02-16T00:15:38;4.25;;;0.80;;
85295;SDS011;76389;43.958;2.882;2024-02-16T00:18:05;5.28;;;0.98;;
85295;SDS011;76389;43.958;2.882;2024-02-16T00:20:31;3.70;;;0.80;;
85295;SDS011;76389;43.958;2.882;2024-02-16T00:22:57;3.65;;;0.82;;
85295;SDS011;76389;43.958;2.882;2024-02-16T00:25:25;5.60;;;0.73;;
85295;SDS011;76389;43.958;2.882;2024-02-16T00:27:51;4.00;;;0.85;;
85295;SDS011;76389;43.958;2.882;2024-02-16T00:30:18;4.25;;;0.63;;
85295;SDS011;76389;43.958;2.882;2024-02-16T00:32:45;5.22;;;0.50;;
85295;SDS011;76389;43.958;2.882;2024-02-16T00:35:11;5.20;;;0.70;;
85295;SDS011;76389;43.958;2.882;2024-02-16T00:37:37;4.82;;;0.63;;
85295;SDS011;76389;43.958;2.882;2024-02-16T00:40:04;3.80;;;0.80;;
85295;SDS011;76389;43.958;2.882;2024-02-16T00:42:31;4.22;;;1.35;;
85295;SDS011;76389;43.958;2.882;2024-02-16T00:44:57;5.13;;;0.82;;
85295;SDS011;76389;43.958;2.882;2024-02-16T00:47:25;4.68;;;1.02;;
85295;SDS011;76389;43.958;2.882;2024-02-16T00:49:52;6.10;;;0.90;;
85295;SDS011;76389;43.958;2.882;2024-02-16T00:52:18;2.17;;;0.60;;
85295;SDS011;76389;43.958;2.882;2024-02-16T00:54:45;4.97;;;0.80;;
85295;SDS011;76389;43.958;2.882;2024-02-16T00:57:12;4.28;;;0.70;;
85295;SDS011;76389;43.958;2.882;2024-02-16T00:59:40;4.15;;;1.10;;
85295;SDS011;76389;43.958;2.882;2024-02-16T01:02:06;2.55;;;0.73;;
85295;SDS011;76389;43.958;2.882;2024-02-16T01:04:32;3.30;;;0.75;;
85295;SDS011;76389;43.958;2.882;2024-02-16T01:06:59;2.75;;;0.60;;
85295;SDS011;76389;43.958;2.882;2024-02-16T01:09:25;3.33;;;0.65;;
85295;SDS011;76389;43.958;2.882;2024-02-16T01:11:52;4.00;;;0.80;;
85295;SDS011;76389;43.958;2.882;2024-02-16T01:14:18;3.70;;;0.68;;
85295;SDS011;76389;43.958;2.882;2024-02-16T01:16:45;2.55;;;0.52;;
85295;SDS011;76389;43.958;2.882;2024-02-16T01:19:11;4.03;;;0.70;;
85295;SDS011;76389;43.958;2.882;2024-02-16T01:21:38;4.38;;;0.52;;
85295;SDS011;76389;43.958;2.882;2024-02-16T01:24:05;5.05;;;0.52;;
85295;SDS011;76389;43.958;2.882;2024-02-16T01:26:31;3.67;;;0.55;;
85295;SDS011;76389;43.958;2.882;2024-02-16T01:28:57;4.68;;;0.82;;
85295;SDS011;76389;43.958;2.882;2024-02-16T01:31:24;3.80;;;0.88;;
85295;SDS011;76389;43.958;2.882;2024-02-16T01:33:51;3.30;;;0.93;;
85295;SDS011;76389;43.958;2.882;2024-02-16T01:36:18;4.82;;;0.63;;
85295;SDS011;76389;43.958;2.882;2024-02-16T01:38:44;3.72;;;1.17;;
85295;SDS011;76389;43.958;2.882;2024-02-16T01:41:10;3.53;;;0.82;;
85295;SDS011;76389;43.958;2.882;2024-02-16T01:43:40;3.28;;;1.05;;
85295;SDS011;76389;43.958;2.882;2024-02-16T01:46:06;4.13;;;1.25;;
85295;SDS011;76389;43.958;2.882;2024-02-16T01:48:32;4.50;;;1.42;;
85295;SDS011;76389;43.958;2.882;2024-02-16T01:50:59;3.85;;;0.90;;
85295;SDS011;76389;43.958;2.882;2024-02-16T01:53:26;4.15;;;1.13;;
85295;SDS011;76389;43.958;2.882;2024-02-16T01:55:52;3.70;;;0.75;;
85295;SDS011;76389;43.958;2.882;2024-02-16T01:58:19;5.95;;;0.98;;
85295;SDS011;76389;43.958;2.882;2024-02-16T02:00:45;3.28;;;0.70;;
85295;SDS011;76389;43.958;2.882;2024-02-16T02:03:11;5.68;;;1.27;;
85295;SDS011;76389;43.958;2.882;2024-02-16T02:05:44;4.13;;;1.17;;
85295;SDS011;76389;43.958;2.882;2024-02-16T02:08:11;5.22;;;1.15;;
85295;SDS011;76389;43.958;2.882;2024-02-16T02:10:38;4.93;;;1.60;;
85295;SDS011;76389;43.958;2.882;2024-02-16T02:13:07;4.20;;;1.08;;
85295;SDS011;76389;43.958;2.882;2024-02-16T02:15:34;4.00;;;1.23;;
85295;SDS011;76389;43.958;2.882;2024-02-16T02:18:00;3.92;;;1.13;;
85295;SDS011;76389;43.958;2.882;2024-02-16T02:20:26;3.38;;;0.93;;
85295;SDS011;76389;43.958;2.882;2024-02-16T02:22:52;4.28;;;1.50;;
85295;SDS011;76389;43.958;2.882;2024-02-16T02:25:18;4.53;;;1.08;;
85295;SDS011;76389;43.958;2.882;2024-02-16T02:27:45;4.95;;;1.10;;
85295;SDS011;76389;43.958;2.882;2024-02-16T02:30:12;4.32;;;1.00;;
85295;SDS011;76389;43.958;2.882;2024-02-16T02:32:38;4.28;;;1.15;;
85295;SDS011;76389;43.958;2.882;2024-02-16T02:35:05;9.20;;;1.50;;
85295;SDS011;76389;43.958;2.882;2024-02-16T02:37:31;3.85;;;1.05;;
85295;SDS011;76389;43.958;2.882;2024-02-16T02:39:58;5.57;;;0.95;;
85295;SDS011;76389;43.958;2.882;2024-02-16T02:42:24;3.38;;;1.35;;
85295;SDS011;76389;43.958;2.882;2024-02-16T02:44:50;4.63;;;1.10;;
85295;SDS011;76389;43.958;2.882;2024-02-16T02:47:16;3.78;;;0.90;;
85295;SDS011;76389;43.958;2.882;2024-02-16T02:49:43;5.78;;;1.70;;
85295;SDS011;76389;43.958;2.882;2024-02-16T02:52:09;3.70;;;1.15;;
85295;SDS011;76389;43.958;2.882;2024-02-16T02:54:35;4.57;;;1.08;;
85295;SDS011;76389;43.958;2.882;2024-02-16T02:57:02;5.85;;;1.02;;
85295;SDS011;76389;43.958;2.882;2024-02-16T02:59:28;5.47;;;1.25;;
85295;SDS011;76389;43.958;2.882;2024-02-16T03:01:54;3.85;;;0.80;;
85295;SDS011;76389;43.958;2.882;2024-02-16T03:04:20;3.65;;;1.02;;
85295;SDS011;76389;43.958;2.882;2024-02-16T03:06:46;4.78;;;0.93;;
85295;SDS011;76389;43.958;2.882;2024-02-16T03:09:12;3.30;;;0.75;;
85295;SDS011;76389;43.958;2.882;2024-02-16T03:11:39;5.70;;;0.98;;
85295;SDS011;76389;43.958;2.882;2024-02-16T03:14:05;5.10;;;1.08;;
85295;SDS011;76389;43.958;2.882;2024-02-16T03:16:31;4.30;;;1.70;;
85295;SDS011;76389;43.958;2.882;2024-02-16T03:18:58;4.40;;;1.35;;
85295;SDS011;76389;43.958;2.882;2024-02-16T03:21:24;3.03;;;1.05;;
85295;SDS011;76389;43.958;2.882;2024-02-16T03:23:50;4.38;;;1.25;;
85295;SDS011;76389;43.958;2.882;2024-02-16T03:26:17;8.95;;;1.73;;
85295;SDS011;76389;43.958;2.882;2024-02-16T03:28:44;4.47;;;1.50;;
85295;SDS011;76389;43.958;2.882;2024-02-16T03:31:16;5.95;;;1.58;;
85295;SDS011;76389;43.958;2.882;2024-02-16T03:33:43;4.22;;;1.52;;
85295;SDS011;76389;43.958;2.882;2024-02-16T03:36:09;6.15;;;1.20;;
85295;SDS011;76389;43.958;2.882;2024-02-16T03:38:35;4.55;;;0.98;;
85295;SDS011;76389;43.958;2.882;2024-02-16T03:41:01;6.45;;;1.40;;
85295;SDS011;76389;43.958;2.882;2024-02-16T03:43:27;5.38;;;1.25;;
85295;SDS011;76389;43.958;2.882;2024-02-16T03:45:53;5.60;;;1.27;;
85295;SDS011;76389;43.958;2.882;2024-02-16T03:48:19;4.70;;;1.02;;
85295;SDS011;76389;43.958;2.882;2024-02-16T03:50:46;6.50;;;1.65;;
85295;SDS011;76389;43.958;2.882;2024-02-16T03:53:12;8.75;;;1.52;;
85295;SDS011;76389;43.958;2.882;2024-02-16T03:55:38;5.00;;;1.20;;
85295;SDS011;76389;43.958;2.882;2024-02-16T03:58:04;6.20;;;1.08;;
85295;SDS011;76389;43.958;2.882;2024-02-16T04:00:30;4.53;;;1.15;;
85295;SDS011;76389;43.958;2.882;2024-02-16T04:02:57;4.57;;;1.30;;
85295;SDS011;76389;43.958;2.882;2024-02-16T04:05:24;7.07;;;1.05;;
85295;SDS011;76389;43.958;2.882;2024-02-16T04:07:56;5.43;;;1.25;;
85295;SDS011;76389;43.958;2.882;2024-02-16T04:10:27;9.25;;;1.00;;
85295;SDS011;76389;43.958;2.882;2024-02-16T04:12:53;6.07;;;1.55;;
85295;SDS011;76389;43.958;2.882;2024-02-16T04:15:20;3.80;;;0.98;;
85295;SDS011;76389;43.958;2.882;2024-02-16T04:17:46;3.85;;;1.35;;
85295;SDS011;76389;43.958;2.882;2024-02-16T04:20:12;4.22;;;1.17;;
85295;SDS011;76389;43.958;2.882;2024-02-16T04:22:38;4.35;;;0.75;;
85295;SDS011;76389;43.958;2.882;2024-02-16T04:25:04;7.18;;;0.93;;
85295;SDS011;76389;43.958;2.882;2024-02-16T04:27:30;3.90;;;1.20;;
85295;SDS011;76389;43.958;2.882;2024-02-16T04:29:56;2.67;;;1.05;;
85295;SDS011;76389;43.958;2.882;2024-02-16T04:32:22;4.85;;;1.27;;
85295;SDS011;76389;43.958;2.882;2024-02-16T04:34:51;7.57;;;1.48;;
85295;SDS011;76389;43.958;2.882;2024-02-16T04:37:18;2.50;;;0.95;;
85295;SDS011;76389;43.958;2.882;2024-02-16T04:39:44;5.63;;;1.60;;
85295;SDS011;76389;43.958;2.882;2024-02-16T04:42:11;9.18;;;2.90;;
85295;SDS011;76389;43.958;2.882;2024-02-16T04:44:37;8.98;;;1.95;;
85295;SDS011;76389;43.958;2.882;2024-02-16T04:47:04;10.00;;;2.40;;
85295;SDS011;76389;43.958;2.882;2024-02-16T04:49:31;6.18;;;1.83;;
85295;SDS011;76389;43.958;2.882;2024-02-16T04:51:57;7.03;;;1.92;;
85295;SDS011;76389;43.958;2.882;2024-02-16T04:54:23;7.38;;;1.23;;
85295;SDS011;76389;43.958;2.882;2024-02-16T04:56:49;3.63;;;1.02;;
85295;SDS011;76389;43.958;2.882;2024-02-16T04:59:17;8.13;;;1.33;;
85295;SDS011;76389;43.958;2.882;2024-02-16T05:01:43;3.63;;;0.90;;
85295;SDS011;76389;43.958;2.882;2024-02-16T05:04:10;7.43;;;1.80;;
85295;SDS011;76389;43.958;2.882;2024-02-16T05:06:39;4.57;;;1.00;;
85295;SDS011;76389;43.958;2.882;2024-02-16T05:09:06;4.28;;;1.05;;
85295;SDS011;76389;43.958;2.882;2024-02-16T05:11:32;6.90;;;1.23;;
85295;SDS011;76389;43.958;2.882;2024-02-16T05:13:58;4.95;;;1.20;;
85295;SDS011;76389;43.958;2.882;2024-02-16T05:16:25;5.82;;;1.35;;
85295;SDS011;76389;43.958;2.882;2024-02-16T05:18:51;6.18;;;2.13;;
85295;SDS011;76389;43.958;2.882;2024-02-16T05:21:17;9.27;;;2.15;;
85295;SDS011;76389;43.958;2.882;2024-02-16T05:23:44;5.35;;;1.90;;
85295;SDS011;76389;43.958;2.882;2024-02-16T05:26:10;6.72;;;1.73;;
85295;SDS011;76389;43.958;2.882;2024-02-16T05:28:36;5.93;;;1.80;;
85295;SDS011;76389;43.958;2.882;2024-02-16T05:31:04;7.00;;;1.98;;
85295;SDS011;76389;43.958;2.882;2024-02-16T05:33:40;7.25;;;1.73;;
85295;SDS011;76389;43.958;2.882;2024-02-16T05:36:06;5.40;;;1.20;;
85295;SDS011;76389;43.958;2.882;2024-02-16T05:38:33;6.35;;;1.55;;
85295;SDS011;76389;43.958;2.882;2024-02-16T05:41:06;6.05;;;1.65;;
85295;SDS011;76389;43.958;2.882;2024-02-16T05:43:33;4.32;;;1.67;;
85295;SDS011;76389;43.958;2.882;2024-02-16T05:46:00;9.77;;;2.58;;
85295;SDS011;76389;43.958;2.882;2024-02-16T05:48:26;7.43;;;1.50;;
85295;SDS011;76389;43.958;2.882;2024-02-16T05:50:57;5.88;;;1.73;;
85295;SDS011;76389;43.958;2.882;2024-02-16T05:53:25;4.32;;;1.85;;
85295;SDS011;76389;43.958;2.882;2024-02-16T05:55:51;6.93;;;2.08;;
85295;SDS011;76389;43.958;2.882;2024-02-16T05:58:17;4.30;;;1.55;;
85295;SDS011;76389;43.958;2.882;2024-02-16T06:00:43;8.68;;;1.90;;
85295;SDS011;76389;43.958;2.882;2024-02-16T06:03:12;8.45;;;1.98;;
85295;SDS011;76389;43.958;2.882;2024-02-16T06:05:38;12.63;;;2.15;;
85295;SDS011;76389;43.958;2.882;2024-02-16T06:08:06;10.00;;;2.40;;
85295;SDS011;76389;43.958;2.882;2024-02-16T06:10:32;11.30;;;4.30;;
85295;SDS011;76389;43.958;2.882;2024-02-16T06:12:59;7.15;;;3.00;;
85295;SDS011;76389;43.958;2.882;2024-02-16T06:15:25;6.97;;;2.70;;
85295;SDS011;76389;43.958;2.882;2024-02-16T06:17:52;9.95;;;2.00;;
85295;SDS011;76389;43.958;2.882;2024-02-16T06:20:18;7.53;;;1.90;;
85295;SDS011;76389;43.958;2.882;2024-02-16T06:22:44;6.10;;;2.10;;
85295;SDS011;76389;43.958;2.882;2024-02-16T06:25:10;7.05;;;2.03;;
85295;SDS011;76389;43.958;2.882;2024-02-16T06:27:36;7.63;;;3.00;;
85295;SDS011;76389;43.958;2.882;2024-02-16T06:30:03;7.35;;;2.42;;
85295;SDS011;76389;43.958;2.882;2024-02-16T06:32:29;7.57;;;3.53;;
85295;SDS011;76389;43.958;2.882;2024-02-16T06:34:56;7.70;;;2.47;;
85295;SDS011;76389;43.958;2.882;2024-02-16T06:37:23;8.40;;;2.88;;
85295;SDS011;76389;43.958;2.882;2024-02-16T06:39:49;5.80;;;2.40;;
85295;SDS011;76389;43.958;2.882;2024-02-16T06:42:15;5.47;;;2.13;;
85295;SDS011;76389;43.958;2.882;2024-02-16T06:44:41;10.07;;;2.60;;
85295;SDS011;76389;43.958;2.882;2024-02-16T06:47:07;8.70;;;2.45;;
85295;SDS011;76389;43.958;2.882;2024-02-16T06:49:33;6.35;;;2.42;;
85295;SDS011;76389;43.958;2.882;2024-02-16T06:51:59;7.72;;;2.42;;
85295;SDS011;76389;43.958;2.882;2024-02-16T06:54:25;9.13;;;2.85;;
85295;SDS011;76389;43.958;2.882;2024-02-16T06:56:51;8.55;;;2.50;;
85295;SDS011;76389;43.958;2.882;2024-02-16T06:59:17;9.48;;;3.30;;
85295;SDS011;76389;43.958;2.882;2024-02-16T07:01:44;6.70;;;2.95;;
85295;SDS011;76389;43.958;2.882;2024-02-16T07:04:10;7.47;;;2.80;;
85295;SDS011;76389;43.958;2.882;2024-02-16T07:06:36;7.60;;;3.00;;
85295;SDS011;76389;43.958;2.882;2024-02-16T07:09:02;7.30;;;2.38;;
85295;SDS011;76389;43.958;2.882;2024-02-16T07:11:29;9.15;;;2.50;;
85295;SDS011;76389;43.958;2.882;2024-02-16T07:13:56;6.68;;;2.90;;
85295;SDS011;76389;43.958;2.882;2024-02-16T07:16:22;7.82;;;2.70;;
85295;SDS011;76389;43.958;2.882;2024-02-16T07:18:48;8.23;;;2.58;;
85295;SDS011;76389;43.958;2.882;2024-02-16T07:21:14;12.88;;;2.97;;
85295;SDS011;76389;43.958;2.882;2024-02-16T07:23:41;11.55;;;3.38;;
85295;SDS011;76389;43.958;2.882;2024-02-16T07:26:07;8.60;;;2.88;;
85295;SDS011;76389;43.958;2.882;2024-02-16T07:28:34;7.18;;;2.85;;
85295;SDS011;76389;43.958;2.882;2024-02-16T07:31:00;9.15;;;3.30;;
85295;SDS011;76389;43.958;2.882;2024-02-16T07:33:26;9.18;;;3.20;;
85295;SDS011;76389;43.958;2.882;2024-02-16T07:35:53;14.55;;;4.40;;
85295;SDS011;76389;43.958;2.882;2024-02-16T07:38:20;16.05;;;4.55;;
85295;SDS011;76389;43.958;2.882;2024-02-16T07:40:47;13.27;;;5.07;;
85295;SDS011;76389;43.958;2.882;2024-02-16T07:45:41;12.38;;;4.70;;
85295;SDS011;76389;43.958;2.882;2024-02-16T07:48:08;9.70;;;3.80;;
85295;SDS011;76389;43.958;2.882;2024-02-16T07:50:34;8.32;;;3.05;;
85295;SDS011;76389;43.958;2.882;2024-02-16T07:53:00;10.40;;;3.38;;
85295;SDS011;76389;43.958;2.882;2024-02-16T07:55:27;8.02;;;2.95;;
85295;SDS011;76389;43.958;2.882;2024-02-16T07:57:53;11.13;;;3.45;;
85295;SDS011;76389;43.958;2.882;2024-02-16T08:00:19;9.55;;;3.80;;
85295;SDS011;76389;43.958;2.882;2024-02-16T08:02:46;14.85;;;3.75;;
85295;SDS011;76389;43.958;2.882;2024-02-16T08:05:12;7.75;;;3.35;;
85295;SDS011;76389;43.958;2.882;2024-02-16T08:07:39;9.77;;;3.78;;
85295;SDS011;76389;43.958;2.882;2024-02-16T08:10:08;13.20;;;4.05;;
85295;SDS011;76389;43.958;2.882;2024-02-16T08:12:34;18.23;;;3.63;;
85295;SDS011;76389;43.958;2.882;2024-02-16T08:15:02;10.52;;;3.83;;
85295;SDS011;76389;43.958;2.882;2024-02-16T08:17:33;14.77;;;6.30;;
85295;SDS011;76389;43.958;2.882;2024-02-16T08:19:59;12.73;;;5.97;;
85295;SDS011;76389;43.958;2.882;2024-02-16T08:22:26;16.75;;;4.88;;
85295;SDS011;76389;43.958;2.882;2024-02-16T08:24:52;13.25;;;4.78;;
85295;SDS011;76389;43.958;2.882;2024-02-16T08:27:18;9.68;;;3.95;;
85295;SDS011;76389;43.958;2.882;2024-02-16T08:29:44;11.95;;;5.05;;
85295;SDS011;76389;43.958;2.882;2024-02-16T08:32:10;8.68;;;3.97;;
85295;SDS011;76389;43.958;2.882;2024-02-16T08:34:37;9.35;;;3.95;;
85295;SDS011;76389;43.958;2.882;2024-02-16T08:37:03;12.90;;;4.65;;
85295;SDS011;76389;43.958;2.882;2024-02-16T08:39:30;13.82;;;5.32;;
85295;SDS011;76389;43.958;2.882;2024-02-16T08:41:57;10.88;;;5.05;;
85295;SDS011;76389;43.958;2.882;2024-02-16T08:44:23;8.32;;;4.13;;
85295;SDS011;76389;43.958;2.882;2024-02-16T08:46:50;8.75;;;4.22;;
85295;SDS011;76389;43.958;2.882;2024-02-16T08:49:16;12.88;;;4.75;;
85295;SDS011;76389;43.958;2.882;2024-02-16T08:51:42;11.23;;;3.53;;
85295;SDS011;76389;43.958;2.882;2024-02-16T08:54:09;10.10;;;4.05;;
85295;SDS011;76389;43.958;2.882;2024-02-16T08:56:35;10.98;;;4.03;;
85295;SDS011;76389;43.958;2.882;2024-02-16T08:59:05;12.50;;;4.90;;
85295;SDS011;76389;43.958;2.882;2024-02-16T09:01:32;10.25;;;4.68;;
85295;SDS011;76389;43.958;2.882;2024-02-16T09:03:59;10.20;;;4.07;;
85295;SDS011;76389;43.958;2.882;2024-02-16T09:06:26;14.73;;;5.80;;
85295;SDS011;76389;43.958;2.882;2024-02-16T09:08:53;17.05;;;6.38;;
85295;SDS011;76389;43.958;2.882;2024-02-16T09:11:19;13.70;;;5.82;;
85295;SDS011;76389;43.958;2.882;2024-02-16T09:13:45;12.73;;;5.70;;
85295;SDS011;76389;43.958;2.882;2024-02-16T09:16:11;19.38;;;4.82;;
85295;SDS011;76389;43.958;2.882;2024-02-16T09:18:37;11.27;;;5.22;;
85295;SDS011;76389;43.958;2.882;2024-02-16T09:21:07;14.15;;;5.70;;
85295;SDS011;76389;43.958;2.882;2024-02-16T09:23:34;16.48;;;6.95;;
85295;SDS011;76389;43.958;2.882;2024-02-16T09:26:01;13.38;;;7.10;;
85295;SDS011;76389;43.958;2.882;2024-02-16T09:28:27;12.23;;;7.22;;
85295;SDS011;76389;43.958;2.882;2024-02-16T09:30:54;16.65;;;8.27;;
85295;SDS011;76389;43.958;2.882;2024-02-16T09:33:21;17.48;;;9.82;;
85295;SDS011;76389;43.958;2.882;2024-02-16T09:35:49;16.45;;;9.63;;
85295;SDS011;76389;43.958;2.882;2024-02-16T09:38:16;18.63;;;10.82;;
85295;SDS011;76389;43.958;2.882;2024-02-16T09:40:43;15.85;;;8.63;;
85295;SDS011;76389;43.958;2.882;2024-02-16T09:43:09;14.30;;;8.02;;
85295;SDS011;76389;43.958;2.882;2024-02-16T09:45:36;13.77;;;7.18;;
85295;SDS011;76389;43.958;2.882;2024-02-16T09:48:03;14.13;;;6.13;;
85295;SDS011;76389;43.958;2.882;2024-02-16T09:50:33;10.90;;;6.25;;
85295;SDS011;76389;43.958;2.882;2024-02-16T09:53:00;15.95;;;7.05;;
85295;SDS011;76389;43.958;2.882;2024-02-16T09:55:31;14.20;;;7.25;;
85295;SDS011;76389;43.958;2.882;2024-02-16T09:57:58;18.05;;;6.63;;
85295;SDS011;76389;43.958;2.882;2024-02-16T10:00:25;17.15;;;6.90;;
85295;SDS011;76389;43.958;2.882;2024-02-16T10:02:51;17.50;;;9.07;;
85295;SDS011;76389;43.958;2.882;2024-02-16T10:05:19;21.33;;;8.70;;
85295;SDS011;76389;43.958;2.882;2024-02-16T10:07:46;17.45;;;8.10;;
85295;SDS011;76389;43.958;2.882;2024-02-16T10:10:20;16.10;;;7.25;;
85295;SDS011;76389;43.958;2.882;2024-02-16T10:12:47;17.63;;;8.13;;
85295;SDS011;76389;43.958;2.882;2024-02-16T10:15:19;16.08;;;7.75;;
85295;SDS011;76389;43.958;2.882;2024-02-16T10:18:07;18.65;;;9.15;;
85295;SDS011;76389;43.958;2.882;2024-02-16T10:20:33;19.77;;;6.57;;
85295;SDS011;76389;43.958;2.882;2024-02-16T10:25:30;7.47;;;3.30;;
85295;SDS011;76389;43.958;2.882;2024-02-16T10:27:57;6.30;;;2.83;;
85295;SDS011;76389;43.958;2.882;2024-02-16T10:30:28;6.82;;;2.75;;
85295;SDS011;76389;43.958;2.882;2024-02-16T10:32:55;11.40;;;2.58;;
85295;SDS011;76389;43.958;2.882;2024-02-16T10:35:24;8.32;;;2.75;;
85295;SDS011;76389;43.958;2.882;2024-02-16T10:37:51;8.15;;;1.90;;
85295;SDS011;76389;43.958;2.882;2024-02-16T10:40:19;5.90;;;1.50;;
85295;SDS011;76389;43.958;2.882;2024-02-16T10:42:45;8.05;;;2.10;;
85295;SDS011;76389;43.958;2.882;2024-02-16T10:45:13;5.95;;;2.25;;
85295;SDS011;76389;43.958;2.882;2024-02-16T10:47:39;7.15;;;2.25;;
85295;SDS011;76389;43.958;2.882;2024-02-16T10:50:06;7.38;;;2.45;;
85295;SDS011;76389;43.958;2.882;2024-02-16T10:52:34;7.20;;;2.17;;
85295;SDS011;76389;43.958;2.882;2024-02-16T10:55:01;8.20;;;3.00;;
85295;SDS011;76389;43.958;2.882;2024-02-16T10:57:29;6.35;;;2.03;;
85295;SDS011;76389;43.958;2.882;2024-02-16T10:59:56;5.63;;;1.73;;
85295;SDS011;76389;43.958;2.882;2024-02-16T11:02:24;6.63;;;2.10;;
85295;SDS011;76389;43.958;2.882;2024-02-16T11:04:51;20.05;;;2.45;;
85295;SDS011;76389;43.958;2.882;2024-02-16T11:07:19;5.88;;;2.03;;
85295;SDS011;76389;43.958;2.882;2024-02-16T11:09:46;7.40;;;2.08;;
85295;SDS011;76389;43.958;2.882;2024-02-16T11:12:13;6.28;;;1.83;;
85295;SDS011;76389;43.958;2.882;2024-02-16T11:14:42;5.88;;;1.77;;
85295;SDS011;76389;43.958;2.882;2024-02-16T11:19:36;10.65;;;1.77;;
85295;SDS011;76389;43.958;2.882;2024-02-16T11:22:03;3.10;;;1.25;;
85295;SDS011;76389;43.958;2.882;2024-02-16T11:24:34;7.70;;;1.60;;
85295;SDS011;76389;43.958;2.882;2024-02-16T11:27:02;7.45;;;1.85;;
85295;SDS011;76389;43.958;2.882;2024-02-16T11:29:30;6.35;;;1.73;;
85295;SDS011;76389;43.958;2.882;2024-02-16T11:31:58;7.68;;;1.65;;
85295;SDS011;76389;43.958;2.882;2024-02-16T11:34:24;10.13;;;1.88;;
85295;SDS011;76389;43.958;2.882;2024-02-16T11:36:54;5.25;;;1.80;;
85295;SDS011;76389;43.958;2.882;2024-02-16T11:39:21;10.73;;;2.00;;
85295;SDS011;76389;43.958;2.882;2024-02-16T11:41:48;8.05;;;1.80;;
85295;SDS011;76389;43.958;2.882;2024-02-16T11:44:27;5.57;;;1.40;;
85295;SDS011;76389;43.958;2.882;2024-02-16T11:46:54;6.00;;;1.48;;
85295;SDS011;76389;43.958;2.882;2024-02-16T11:49:21;7.18;;;1.30;;
85295;SDS011;76389;43.958;2.882;2024-02-16T11:51:47;5.10;;;1.10;;
85295;SDS011;76389;43.958;2.882;2024-02-16T11:54:13;5.88;;;0.98;;
85295;SDS011;76389;43.958;2.882;2024-02-16T11:56:45;5.57;;;1.08;;
85295;SDS011;76389;43.958;2.882;2024-02-16T11:59:14;5.50;;;0.75;;
85295;SDS011;76389;43.958;2.882;2024-02-16T12:01:52;3.72;;;1.13;;
85295;SDS011;76389;43.958;2.882;2024-02-16T12:04:20;4.13;;;1.05;;
85295;SDS011;76389;43.958;2.882;2024-02-16T12:06:47;6.25;;;0.80;;
85295;SDS011;76389;43.958;2.882;2024-02-16T12:09:16;4.20;;;0.80;;
85295;SDS011;76389;43.958;2.882;2024-02-16T12:11:43;6.22;;;0.95;;
85295;SDS011;76389;43.958;2.882;2024-02-16T12:14:09;3.95;;;0.98;;
85295;SDS011;76389;43.958;2.882;2024-02-16T12:16:36;3.38;;;0.93;;
85295;SDS011;76389;43.958;2.882;2024-02-16T12:19:04;5.15;;;1.17;;
85295;SDS011;76389;43.958;2.882;2024-02-16T12:21:30;3.33;;;1.25;;
85295;SDS011;76389;43.958;2.882;2024-02-16T12:23:56;3.28;;;0.82;;
85295;SDS011;76389;43.958;2.882;2024-02-16T12:26:23;7.78;;;1.33;;
85295;SDS011;76389;43.958;2.882;2024-02-16T12:28:49;3.97;;;1.10;;
85295;SDS011;76389;43.958;2.882;2024-02-16T12:31:19;5.88;;;0.90;;
85295;SDS011;76389;43.958;2.882;2024-02-16T12:33:46;6.72;;;0.90;;
85295;SDS011;76389;43.958;2.882;2024-02-16T12:36:12;4.55;;;1.13;;
85295;SDS011;76389;43.958;2.882;2024-02-16T12:38:39;4.05;;;1.15;;
85295;SDS011;76389;43.958;2.882;2024-02-16T12:41:06;4.55;;;1.02;;
85295;SDS011;76389;43.958;2.882;2024-02-16T12:43:32;4.18;;;1.25;;
85295;SDS011;76389;43.958;2.882;2024-02-16T12:45:58;3.65;;;0.90;;
85295;SDS011;76389;43.958;2.882;2024-02-16T12:48:27;3.55;;;1.52;;
85295;SDS011;76389;43.958;2.882;2024-02-16T12:50:54;3.05;;;1.10;;
85295;SDS011;76389;43.958;2.882;2024-02-16T12:53:20;3.55;;;0.90;;
85295;SDS011;76389;43.958;2.882;2024-02-16T12:55:50;5.22;;;1.48;;
85295;SDS011;76389;43.958;2.882;2024-02-16T12:58:16;5.68;;;1.52;;
85295;SDS011;76389;43.958;2.882;2024-02-16T13:00:42;3.60;;;0.93;;
85295;SDS011;76389;43.958;2.882;2024-02-16T13:03:08;2.80;;;0.93;;
85295;SDS011;76389;43.958;2.882;2024-02-16T13:05:34;3.22;;;1.10;;
85295;SDS011;76389;43.958;2.882;2024-02-16T13:08:00;4.80;;;0.70;;
85295;SDS011;76389;43.958;2.882;2024-02-16T13:10:26;2.80;;;0.80;;
85295;SDS011;76389;43.958;2.882;2024-02-16T13:12:52;3.13;;;1.05;;
85295;SDS011;76389;43.958;2.882;2024-02-16T13:15:18;4.82;;;0.82;;
85295;SDS011;76389;43.958;2.882;2024-02-16T13:17:45;5.80;;;1.30;;
85295;SDS011;76389;43.958;2.882;2024-02-16T13:20:11;2.85;;;0.73;;
85295;SDS011;76389;43.958;2.882;2024-02-16T13:22:37;4.57;;;0.75;;
85295;SDS011;76389;43.958;2.882;2024-02-16T13:25:04;2.58;;;0.70;;
85295;SDS011;76389;43.958;2.882;2024-02-16T13:27:31;4.18;;;0.75;;
85295;SDS011;76389;43.958;2.882;2024-02-16T13:29:57;4.07;;;0.73;;
85295;SDS011;76389;43.958;2.882;2024-02-16T13:32:24;2.50;;;0.50;;
85295;SDS011;76389;43.958;2.882;2024-02-16T13:34:50;3.28;;;0.80;;
85295;SDS011;76389;43.958;2.882;2024-02-16T13:37:16;2.00;;;0.52;;
85295;SDS011;76389;43.958;2.882;2024-02-16T13:39:43;1.73;;;0.57;;
85295;SDS011;76389;43.958;2.882;2024-02-16T13:42:12;3.42;;;0.70;;
85295;SDS011;76389;43.958;2.882;2024-02-16T13:44:38;2.47;;;0.43;;
85295;SDS011;76389;43.958;2.882;2024-02-16T13:47:05;4.00;;;0.73;;
85295;SDS011;76389;43.958;2.882;2024-02-16T13:49:31;3.28;;;0.57;;
85295;SDS011;76389;43.958;2.882;2024-02-16T13:51:57;3.78;;;0.70;;
85295;SDS011;76389;43.958;2.882;2024-02-16T13:54:25;2.33;;;0.63;;
85295;SDS011;76389;43.958;2.882;2024-02-16T13:56:51;2.88;;;0.52;;
85295;SDS011;76389;43.958;2.882;2024-02-16T13:59:18;1.52;;;0.30;;
85295;SDS011;76389;43.958;2.882;2024-02-16T14:01:44;1.65;;;0.45;;
85295;SDS011;76389;43.958;2.882;2024-02-16T14:04:11;2.08;;;0.50;;
85295;SDS011;76389;43.958;2.882;2024-02-16T14:06:38;2.10;;;0.68;;
85295;SDS011;76389;43.958;2.882;2024-02-16T14:09:04;2.20;;;0.50;;
85295;SDS011;76389;43.958;2.882;2024-02-16T14:11:35;1.98;;;0.52;;
85295;SDS011;76389;43.958;2.882;2024-02-16T14:14:01;3.35;;;0.60;;
85295;SDS011;76389;43.958;2.882;2024-02-16T14:16:27;3.58;;;0.50;;
85295;SDS011;76389;43.958;2.882;2024-02-16T14:18:54;0.50;;;0.20;;
85295;SDS011;76389;43.958;2.882;2024-02-16T14:21:20;1.25;;;0.30;;
85295;SDS011;76389;43.958;2.882;2024-02-16T14:23:46;2.65;;;0.30;;
85295;SDS011;76389;43.958;2.882;2024-02-16T14:26:12;2.35;;;0.40;;
85295;SDS011;76389;43.958;2.882;2024-02-16T14:28:38;10.30;;;0.70;;
85295;SDS011;76389;43.958;2.882;2024-02-16T14:31:04;2.15;;;0.32;;
85295;SDS011;76389;43.958;2.882;2024-02-16T14:33:31;0.90;;;0.30;;
85295;SDS011;76389;43.958;2.882;2024-02-16T14:35:58;1.13;;;0.22;;
85295;SDS011;76389;43.958;2.882;2024-02-16T14:38:24;1.55;;;0.28;;
85295;SDS011;76389;43.958;2.882;2024-02-16T14:40:50;1.73;;;0.20;;
85295;SDS011;76389;43.958;2.882;2024-02-16T14:43:16;1.63;;;0.30;;
85295;SDS011;76389;43.958;2.882;2024-02-16T14:45:42;1.10;;;0.30;;
85295;SDS011;76389;43.958;2.882;2024-02-16T14:48:08;0.60;;;0.13;;
85295;SDS011;76389;43.958;2.882;2024-02-16T14:50:35;2.38;;;0.40;;